Time;durP1;ratioP1;P1;durP2;ratioP2;P2;SDS_P1;SDS_P2;PMS_P1;PMS_P2;Temp;Humidity;BMP_temperature;BMP_pressure;BME280_temperature;BME280_humidity;BME280_pressure;Samples;Min_cycle;Max_cycle;Signal;HPM_P1;HPM_P2
2023/10/03 00:01:37;;;;;;;37.90;21.55;;;18.70;66.50;;;;;;5075018;28;20028;-83
2023/10/03 00:04:03;;;;;;;38.00;21.50;;;18.60;66.40;;;;;;5074929;28;20036;-84
2023/10/03 00:06:29;;;;;;;36.60;21.80;;;18.70;66.30;;;;;;5074529;28;20024;-85
2023/10/03 00:08:54;;;;;;;33.42;20.58;;;18.60;65.90;;;;;;5074289;28;20033;-84
2023/10/03 00:11:22;;;;;;;31.95;19.45;;;18.60;65.70;;;;;;5069040;28;20025;-84
2023/10/03 00:13:49;;;;;;;36.28;20.85;;;18.70;65.60;;;;;;5084267;28;20025;-84
2023/10/03 00:16:16;;;;;;;33.25;19.33;;;18.70;65.40;;;;;;5073643;28;20021;-85
2023/10/03 00:18:42;;;;;;;31.70;18.52;;;18.60;65.10;;;;;;5073533;28;20028;-84
2023/10/03 00:21:07;;;;;;;30.33;17.50;;;18.70;64.80;;;;;;5073046;28;20047;-85
2023/10/03 00:23:33;;;;;;;33.10;18.40;;;18.70;64.60;;;;;;5072919;28;20469;-84
2023/10/03 00:26:02;;;;;;;30.08;18.55;;;18.70;64.20;;;;;;5072772;28;20037;-84
2023/10/03 00:28:32;;;;;;;30.20;17.95;;;18.70;64.00;;;;;;5073191;28;20082;-82
2023/10/03 00:30:58;;;;;;;33.15;19.73;;;18.60;63.50;;;;;;5072769;28;20465;-82
2023/10/03 00:33:25;;;;;;;32.20;19.55;;;18.70;63.40;;;;;;5072859;28;20650;-81
2023/10/03 00:35:55;;;;;;;31.90;19.10;;;18.70;63.00;;;;;;5072795;28;20063;-82
2023/10/03 00:38:21;;;;;;;30.42;18.25;;;18.70;63.10;;;;;;5072706;28;20024;-83
2023/10/03 00:40:49;;;;;;;31.80;19.30;;;18.70;63.30;;;;;;5073093;28;20060;-81
2023/10/03 00:43:15;;;;;;;31.38;18.05;;;18.70;63.20;;;;;;5072746;28;20475;-83
2023/10/03 00:45:42;;;;;;;32.33;18.55;;;18.60;63.30;;;;;;5072631;28;20021;-79
2023/10/03 00:48:08;;;;;;;30.15;18.35;;;18.60;63.60;;;;;;5072494;28;20080;-81
2023/10/03 00:50:35;;;;;;;32.78;18.98;;;18.50;63.80;;;;;;5073276;28;20024;-81
2023/10/03 00:53:09;;;;;;;31.80;18.27;;;18.40;64.10;;;;;;5075960;28;20024;-82
2023/10/03 00:55:37;;;;;;;29.85;18.13;;;18.40;64.30;;;;;;5076298;28;20078;-83
2023/10/03 00:58:17;;;;;;;31.23;18.38;;;18.40;64.50;;;;;;5075820;28;20085;-83
2023/10/03 01:00:45;;;;;;;33.40;19.52;;;18.30;64.70;;;;;;5075963;28;20060;-82
2023/10/03 01:03:31;;;;;;;28.90;17.15;;;18.30;65.00;;;;;;5076362;28;20038;-84
2023/10/03 01:05:58;;;;;;;;;;;18.30;65.10;;;;;;5076664;28;20028;-83
2023/10/03 01:08:24;;;;;;;29.08;17.20;;;18.20;64.80;;;;;;5076075;28;19973;-83
2023/10/03 01:10:51;;;;;;;28.77;17.00;;;18.20;64.60;;;;;;5076683;28;20031;-83
2023/10/03 01:13:19;;;;;;;29.92;18.35;;;18.20;64.70;;;;;;5075999;28;20020;-80
2023/10/03 01:15:49;;;;;;;26.75;16.58;;;18.20;64.80;;;;;;5076236;28;20093;-83
2023/10/03 01:18:18;;;;;;;31.30;18.33;;;18.20;64.90;;;;;;5075756;28;20020;-80
2023/10/03 01:20:48;;;;;;;34.33;18.48;;;18.20;64.90;;;;;;5076283;28;20450;-83
2023/10/03 01:23:15;;;;;;;31.95;18.38;;;18.10;64.90;;;;;;5076674;28;20057;-83
2023/10/03 01:25:44;;;;;;;31.25;17.92;;;18.10;65.00;;;;;;5076313;28;20023;-83
2023/10/03 01:28:11;;;;;;;34.42;18.65;;;18.10;65.20;;;;;;5077568;28;20484;-84
2023/10/03 01:30:37;;;;;;;31.83;18.25;;;18.00;65.30;;;;;;5076611;28;20099;-81
2023/10/03 01:33:04;;;;;;;29.02;17.40;;;17.90;65.70;;;;;;5075825;28;20056;-79
2023/10/03 01:35:30;;;;;;;27.85;18.02;;;17.90;65.90;;;;;;5076308;28;20028;-82
2023/10/03 01:37:55;;;;;;;35.03;18.08;;;17.80;66.00;;;;;;5075201;28;20025;-82
2023/10/03 01:40:21;;;;;;;29.60;17.75;;;17.70;66.20;;;;;;5057284;28;20126;-83
2023/10/03 01:42:47;;;;;;;30.63;18.42;;;17.70;66.30;;;;;;5075180;28;20028;-83
2023/10/03 01:45:19;;;;;;;29.17;18.02;;;17.60;66.50;;;;;;5075222;28;20064;-81
2023/10/03 01:47:47;;;;;;;35.58;17.50;;;17.60;66.60;;;;;;5075029;28;20052;-82
2023/10/03 01:50:12;;;;;;;28.38;16.65;;;17.60;66.50;;;;;;5075025;28;20021;-81
2023/10/03 01:52:42;;;;;;;30.52;17.90;;;17.60;66.40;;;;;;5074963;28;20019;-83
2023/10/03 01:55:10;;;;;;;31.58;18.20;;;17.60;66.40;;;;;;5056962;28;20025;-82
2023/10/03 01:57:36;;;;;;;26.15;16.38;;;17.60;66.50;;;;;;5075079;28;20402;-83
2023/10/03 02:00:05;;;;;;;29.00;17.15;;;17.60;66.20;;;;;;5056677;28;20145;-81
2023/10/03 02:02:31;;;;;;;29.30;17.20;;;17.60;66.10;;;;;;5074565;28;20028;-81
2023/10/03 02:04:57;;;;;;;31.73;18.10;;;17.60;65.80;;;;;;5074916;28;20385;-82
2023/10/03 02:07:26;;;;;;;26.73;16.02;;;17.60;66.00;;;;;;5074859;28;20025;-82
2023/10/03 02:09:53;;;;;;;28.50;16.67;;;17.50;66.20;;;;;;5056617;28;20075;-83
2023/10/03 02:12:21;;;;;;;27.92;17.42;;;17.50;66.10;;;;;;5074963;28;20078;-79
2023/10/03 02:14:49;;;;;;;28.70;17.40;;;17.60;65.90;;;;;;5074498;28;20066;-82
2023/10/03 02:17:14;;;;;;;27.52;17.15;;;17.50;66.00;;;;;;5074701;28;20021;-83
2023/10/03 02:19:40;;;;;;;34.25;16.95;;;17.50;66.20;;;;;;5074733;28;20036;-81
2023/10/03 02:22:05;;;;;;;30.70;17.17;;;17.50;66.20;;;;;;5080758;28;20028;-76
2023/10/03 02:24:32;;;;;;;25.52;16.00;;;17.40;66.30;;;;;;5094532;28;20032;-82
2023/10/03 02:27:00;;;;;;;31.80;17.15;;;17.30;66.10;;;;;;5090878;28;20048;-81
2023/10/03 02:29:26;;;;;;;27.90;16.38;;;17.40;65.90;;;;;;5079979;28;20044;-82
2023/10/03 02:31:53;;;;;;;28.08;15.45;;;17.30;65.80;;;;;;5074341;28;20496;-82
2023/10/03 02:34:19;;;;;;;29.50;16.02;;;17.30;65.40;;;;;;5074357;28;20024;-82
2023/10/03 02:36:44;;;;;;;29.13;16.05;;;17.30;65.20;;;;;;5074374;28;20039;-83
2023/10/03 02:39:13;;;;;;;26.83;15.80;;;17.40;64.80;;;;;;5074457;28;20493;-85
2023/10/03 02:41:39;;;;;;;26.08;14.50;;;17.50;64.70;;;;;;5074471;28;20149;-84
2023/10/03 02:44:07;;;;;;;26.50;15.35;;;17.50;64.60;;;;;;5074236;28;20107;-84
2023/10/03 02:46:33;;;;;;;26.70;15.68;;;17.50;64.60;;;;;;5073631;28;20017;-81
2023/10/03 02:49:00;;;;;;;27.67;15.73;;;17.50;64.60;;;;;;5074306;28;20021;-80
2023/10/03 02:51:26;;;;;;;26.17;15.57;;;17.50;64.50;;;;;;5073737;28;20119;-84
2023/10/03 02:53:51;;;;;;;24.73;14.38;;;17.60;64.10;;;;;;5056134;28;20031;-82
2023/10/03 02:56:17;;;;;;;23.15;14.70;;;17.50;64.00;;;;;;5056117;28;20062;-84
2023/10/03 02:58:43;;;;;;;23.48;14.27;;;17.60;64.10;;;;;;5073813;28;20064;-83
2023/10/03 03:01:09;;;;;;;23.05;13.85;;;17.60;63.90;;;;;;5073867;28;20032;-83
2023/10/03 03:03:34;;;;;;;26.95;15.02;;;17.60;63.00;;;;;;5073801;28;20021;-82
2023/10/03 03:06:04;;;;;;;24.73;14.77;;;17.70;62.90;;;;;;5073853;28;20431;-83
2023/10/03 03:08:30;;;;;;;20.75;13.10;;;17.80;62.10;;;;;;5055640;28;20115;-82
2023/10/03 03:10:57;;;;;;;22.98;13.38;;;17.80;61.70;;;;;;5067364;28;20364;-83
2023/10/03 03:13:28;;;;;;;21.95;12.48;;;17.90;61.30;;;;;;5052808;28;20054;-80
2023/10/03 03:16:01;;;;;;;20.38;12.45;;;18.00;60.20;;;;;;5053504;28;20056;-82
2023/10/03 03:18:31;;;;;;;18.02;12.35;;;18.10;60.10;;;;;;5053582;28;20021;-81
2023/10/03 03:21:07;;;;;;;20.05;12.20;;;18.20;58.80;;;;;;5053440;28;20081;-83
2023/10/03 03:23:38;;;;;;;15.93;10.30;;;18.20;59.30;;;;;;5053721;28;20032;-82
2023/10/03 03:26:29;;;;;;;14.90;9.65;;;18.30;55.60;;;;;;5053694;28;20113;-83
2023/10/03 03:28:54;;;;;;;15.43;8.52;;;18.40;54.20;;;;;;5053466;28;20029;-83
2023/10/03 03:31:26;;;;;;;24.08;9.48;;;18.70;51.30;;;;;;5053355;28;20021;-81
2023/10/03 03:34:00;;;;;;;13.63;7.97;;;19.10;49.10;;;;;;5053545;28;20021;-82
2023/10/03 03:36:29;;;;;;;10.77;6.82;;;19.50;46.20;;;;;;5053409;28;20469;-83
2023/10/03 03:38:56;;;;;;;12.73;7.55;;;20.00;44.30;;;;;;5053271;28;20029;-82
2023/10/03 03:41:22;;;;;;;13.18;6.65;;;20.50;42.80;;;;;;5053450;28;20036;-82
2023/10/03 03:43:49;;;;;;;14.45;7.93;;;20.80;41.70;;;;;;5053640;28;20104;-80
2023/10/03 03:46:15;;;;;;;12.98;6.88;;;21.10;41.10;;;;;;5065209;28;20021;-79
2023/10/03 03:48:40;;;;;;;14.13;7.53;;;21.30;40.30;;;;;;5064321;28;20060;-72
2023/10/03 03:51:11;;;;;;;12.80;7.63;;;21.50;39.70;;;;;;5053706;28;20021;-71
2023/10/03 03:53:38;;;;;;;12.10;6.90;;;21.60;39.60;;;;;;5045328;28;20033;-71
2023/10/03 03:56:07;;;;;;;14.52;7.45;;;21.70;39.10;;;;;;5052985;28;20034;-78
2023/10/03 03:58:37;;;;;;;11.18;7.25;;;21.80;38.50;;;;;;5054603;28;20033;-82
2023/10/03 04:01:11;;;;;;;13.43;7.32;;;21.80;38.40;;;;;;5058980;28;20021;-82
2023/10/03 04:03:38;;;;;;;12.13;6.55;;;21.80;38.80;;;;;;5062846;28;20036;-82
2023/10/03 04:06:05;;;;;;;14.25;7.13;;;21.90;38.20;;;;;;5067358;28;20082;-81
2023/10/03 04:08:30;;;;;;;10.93;7.05;;;21.90;38.60;;;;;;5067587;28;20025;-84
2023/10/03 04:10:56;;;;;;;11.73;6.88;;;21.80;38.40;;;;;;5053542;28;20706;-82
2023/10/03 04:13:22;;;;;;;13.25;6.85;;;21.80;38.40;;;;;;5035411;28;20454;-82
2023/10/03 04:15:47;;;;;;;11.48;7.05;;;21.80;38.70;;;;;;5052997;28;20296;-83
2023/10/03 04:18:16;;;;;;;13.25;7.47;;;21.70;38.50;;;;;;5052817;28;20037;-82
2023/10/03 04:20:46;;;;;;;13.15;7.15;;;21.80;38.30;;;;;;5052901;28;20036;-83
2023/10/03 04:23:11;;;;;;;9.07;6.60;;;21.80;38.40;;;;;;5052810;28;20027;-84
2023/10/03 04:25:39;;;;;;;12.13;7.00;;;21.70;38.80;;;;;;5055156;28;20575;-83
2023/10/03 04:28:05;;;;;;;10.48;6.25;;;21.70;38.90;;;;;;5057420;28;20133;-81
2023/10/03 04:30:31;;;;;;;11.38;7.25;;;21.60;38.90;;;;;;5056708;28;20032;-72
2023/10/03 04:32:57;;;;;;;11.70;7.20;;;21.60;39.10;;;;;;5038501;28;20017;-71
2023/10/03 04:35:24;;;;;;;11.05;6.97;;;21.50;39.30;;;;;;5056651;28;20078;-73
2023/10/03 04:37:51;;;;;;;11.20;6.32;;;21.50;39.30;;;;;;5056369;28;20017;-73
2023/10/03 04:40:36;;;;;;;10.23;6.20;;;21.50;39.30;;;;;;5056645;28;20076;-82
2023/10/03 04:43:11;;;;;;;9.85;6.40;;;21.50;39.50;;;;;;5056447;28;20112;-82
2023/10/03 04:45:40;;;;;;;10.57;6.78;;;21.40;39.20;;;;;;5056423;28;20036;-76
2023/10/03 04:48:06;;;;;;;11.20;6.32;;;21.50;39.60;;;;;;5056115;28;20052;-81
2023/10/03 04:50:35;;;;;;;10.18;6.68;;;21.40;39.50;;;;;;5056147;28;20029;-79
2023/10/03 04:53:02;;;;;;;8.45;5.60;;;21.30;39.90;;;;;;5055994;28;20108;-71
2023/10/03 04:55:27;;;;;;;9.02;6.00;;;21.30;39.80;;;;;;5056428;28;20104;-74
2023/10/03 04:57:54;;;;;;;11.68;6.25;;;21.30;39.80;;;;;;5056101;28;20075;-82
2023/10/03 05:00:24;;;;;;;10.23;6.50;;;21.30;39.80;;;;;;5055988;28;20068;-73
2023/10/03 05:02:51;;;;;;;10.35;6.60;;;21.30;40.10;;;;;;5055893;28;20110;-75
2023/10/03 05:05:18;;;;;;;10.85;6.35;;;21.20;40.00;;;;;;5055741;28;20481;-78
2023/10/03 05:07:49;;;;;;;10.27;6.15;;;21.20;40.40;;;;;;5055969;28;20039;-74
2023/10/03 05:10:17;;;;;;;9.48;6.15;;;21.10;40.80;;;;;;5054950;28;20033;-73
2023/10/03 05:12:45;;;;;;;10.45;6.53;;;21.00;41.30;;;;;;5055692;28;20347;-72
2023/10/03 05:15:11;;;;;;;10.85;6.57;;;20.90;42.10;;;;;;5055711;28;20029;-82
2023/10/03 05:17:38;;;;;;;11.45;6.40;;;20.90;43.00;;;;;;5055787;28;20483;-72
2023/10/03 05:20:05;;;;;;;9.07;6.25;;;20.70;44.10;;;;;;5055404;28;20481;-72
2023/10/03 05:22:32;;;;;;;10.10;6.50;;;20.50;44.90;;;;;;5055458;28;20047;-73
2023/10/03 05:24:59;;;;;;;11.35;6.13;;;20.40;45.90;;;;;;5055417;28;20099;-72
2023/10/03 05:27:24;;;;;;;11.95;6.53;;;20.20;46.90;;;;;;5055214;28;20025;-74
2023/10/03 05:29:51;;;;;;;11.57;7.22;;;20.00;48.00;;;;;;5055079;28;20021;-74
2023/10/03 05:32:17;;;;;;;10.65;6.50;;;19.90;48.60;;;;;;5055063;28;20048;-72
2023/10/03 05:34:43;;;;;;;11.68;6.93;;;19.70;49.00;;;;;;5055536;28;20028;-72
2023/10/03 05:37:08;;;;;;;11.43;7.28;;;19.50;49.10;;;;;;5054365;28;20029;-72
2023/10/03 05:39:34;;;;;;;10.40;6.43;;;19.50;49.40;;;;;;5054945;28;20041;-73
2023/10/03 05:42:03;;;;;;;13.23;7.20;;;19.40;48.60;;;;;;5058468;28;20497;-74
2023/10/03 05:44:28;;;;;;;10.38;6.55;;;19.40;48.90;;;;;;5055276;28;20024;-73
2023/10/03 05:46:55;;;;;;;9.77;6.22;;;19.50;49.50;;;;;;5054815;28;20390;-72
2023/10/03 05:49:24;;;;;;;10.63;6.60;;;19.40;49.50;;;;;;5054809;28;20017;-76
2023/10/03 05:51:55;;;;;;;12.63;6.32;;;19.40;49.80;;;;;;5054873;28;20028;-73
2023/10/03 05:54:24;;;;;;;9.85;6.60;;;19.40;50.60;;;;;;5055045;28;20025;-82
2023/10/03 05:56:51;;;;;;;11.52;6.45;;;19.30;51.20;;;;;;5055795;28;20083;-83
2023/10/03 05:59:17;;;;;;;10.27;6.60;;;19.20;51.10;;;;;;5055277;28;20461;-80
2023/10/03 06:01:42;;;;;;;10.30;6.32;;;19.20;50.80;;;;;;5055207;28;20021;-82
2023/10/03 06:04:08;;;;;;;11.60;6.72;;;19.20;50.40;;;;;;5055454;28;20079;-84
2023/10/03 06:06:34;;;;;;;9.60;6.25;;;19.30;48.90;;;;;;5037519;28;20029;-83
2023/10/03 06:09:00;;;;;;;9.13;7.00;;;19.40;50.90;;;;;;5055370;28;20029;-83
2023/10/03 06:11:25;;;;;;;13.13;6.97;;;19.40;51.10;;;;;;5055133;28;20108;-85
2023/10/03 06:13:51;;;;;;;12.73;6.20;;;19.30;51.10;;;;;;5055492;28;20040;-84
2023/10/03 06:16:18;;;;;;;11.05;6.60;;;19.20;51.30;;;;;;5068197;28;20025;-84
2023/10/03 06:18:44;;;;;;;8.00;5.40;;;19.30;51.70;;;;;;5060007;28;20098;-81
2023/10/03 06:21:10;;;;;;;10.20;6.50;;;19.30;52.20;;;;;;5055657;28;20487;-83
2023/10/03 06:23:39;;;;;;;10.63;6.50;;;19.30;51.20;;;;;;5055642;28;20047;-83
2023/10/03 06:26:04;;;;;;;11.30;6.05;;;19.30;51.00;;;;;;5056791;28;20031;-84
2023/10/03 06:28:30;;;;;;;8.88;6.05;;;19.40;50.90;;;;;;5057007;28;20073;-83
2023/10/03 06:30:56;;;;;;;10.52;6.43;;;19.50;51.30;;;;;;5056853;28;20108;-83
2023/10/03 06:33:21;;;;;;;11.95;7.28;;;19.50;51.30;;;;;;5055828;28;20029;-83
2023/10/03 06:35:51;;;;;;;9.98;6.65;;;19.50;51.10;;;;;;5054787;28;20025;-83
2023/10/03 06:38:17;;;;;;;10.23;6.03;;;19.70;51.10;;;;;;5055252;28;20031;-82
2023/10/03 06:40:43;;;;;;;10.75;6.80;;;19.70;50.60;;;;;;5054878;28;20021;-81
2023/10/03 06:43:09;;;;;;;8.80;5.47;;;19.80;51.10;;;;;;5054815;28;20021;-82
2023/10/03 06:45:35;;;;;;;9.90;5.78;;;19.80;48.10;;;;;;5036658;28;20029;-79
2023/10/03 06:48:03;;;;;;;9.15;5.88;;;20.20;46.30;;;;;;5053318;28;20080;-81
2023/10/03 06:50:32;;;;;;;10.50;5.50;;;20.70;44.30;;;;;;5054538;28;20025;-81
2023/10/03 06:52:59;;;;;;;11.10;5.80;;;21.20;42.60;;;;;;5054429;28;20028;-83
2023/10/03 06:55:25;;;;;;;17.05;6.05;;;21.50;42.10;;;;;;5054535;28;20081;-83
2023/10/03 06:57:50;;;;;;;8.77;5.03;;;21.80;41.00;;;;;;5056096;28;20024;-82
2023/10/03 07:00:17;;;;;;;8.35;5.30;;;21.90;40.90;;;;;;5040424;28;20475;-83
2023/10/03 07:02:42;;;;;;;10.45;5.80;;;22.00;39.70;;;;;;5064694;28;20021;-80
2023/10/03 07:05:08;;;;;;;9.48;4.93;;;22.20;39.40;;;;;;5066467;28;20033;-82
2023/10/03 07:07:34;;;;;;;11.05;5.78;;;22.40;39.10;;;;;;5062138;28;20048;-83
2023/10/03 07:10:00;;;;;;;7.97;5.25;;;22.30;39.70;;;;;;5054918;28;20021;-81
2023/10/03 07:12:26;;;;;;;8.30;5.32;;;22.40;39.30;;;;;;5036566;28;20465;-82
2023/10/03 07:14:51;;;;;;;7.50;5.00;;;22.50;39.20;;;;;;5054006;28;20013;-82
2023/10/03 07:17:17;;;;;;;8.13;5.65;;;22.50;39.40;;;;;;5054346;28;20032;-82
2023/10/03 07:19:46;;;;;;;9.07;5.43;;;22.50;39.80;;;;;;5054018;28;20048;-81
2023/10/03 07:22:12;;;;;;;11.85;5.65;;;22.50;39.10;;;;;;5036289;28;20433;-82
2023/10/03 07:24:39;;;;;;;8.45;5.20;;;22.60;39.20;;;;;;5054083;28;20032;-83
2023/10/03 07:27:08;;;;;;;8.05;5.18;;;22.70;39.30;;;;;;5053380;28;20488;-75
2023/10/03 07:29:36;;;;;;;8.82;5.45;;;22.70;39.50;;;;;;5053839;28;20036;-82
2023/10/03 07:32:02;;;;;;;9.82;5.57;;;22.70;39.10;;;;;;5053626;28;20037;-82
2023/10/03 07:34:28;;;;;;;9.35;5.47;;;22.70;38.80;;;;;;5054478;28;20043;-83
2023/10/03 07:36:54;;;;;;;9.35;5.15;;;22.80;39.30;;;;;;5054677;28;20017;-83
2023/10/03 07:39:21;;;;;;;13.25;5.88;;;22.80;38.80;;;;;;5053944;28;20072;-80
2023/10/03 07:41:51;;;;;;;8.55;5.43;;;22.80;40.00;;;;;;5054044;28;20029;-70
2023/10/03 07:44:17;;;;;;;7.15;4.75;;;22.90;39.40;;;;;;5053273;28;20068;-72
2023/10/03 07:46:43;;;;;;;8.65;5.38;;;22.90;39.40;;;;;;5034890;28;20064;-75
2023/10/03 07:49:08;;;;;;;8.90;5.43;;;23.00;39.50;;;;;;5053429;28;20071;-76
2023/10/03 07:51:34;;;;;;;8.00;5.03;;;23.00;39.90;;;;;;5053043;28;20101;-76
2023/10/03 07:53:59;;;;;;;9.55;4.85;;;23.00;39.40;;;;;;5051914;28;20059;-77
2023/10/03 07:56:33;;;;;;;9.30;5.30;;;23.10;39.20;;;;;;5053164;28;20033;-79
2023/10/03 07:59:02;;;;;;;10.43;5.47;;;23.10;39.30;;;;;;5052905;28;20021;-79
2023/10/03 08:01:29;;;;;;;7.25;4.80;;;23.10;39.20;;;;;;5057364;28;20037;-81
2023/10/03 08:03:56;;;;;;;11.25;5.35;;;23.10;39.00;;;;;;5057911;28;20025;-80
2023/10/03 08:06:33;;;;;;;7.90;5.13;;;23.20;38.90;;;;;;5057430;28;20060;-81
2023/10/03 08:08:59;;;;;;;7.72;4.90;;;23.30;38.50;;;;;;5057780;28;20017;-83
2023/10/03 08:11:29;;;;;;;9.52;4.75;;;23.20;39.00;;;;;;5057328;28;20129;-81
2023/10/03 08:13:58;;;;;;;7.43;4.63;;;23.30;38.90;;;;;;5056931;28;20029;-75
2023/10/03 08:16:28;;;;;;;9.68;5.07;;;23.30;38.60;;;;;;5056980;28;20032;-72
2023/10/03 08:19:01;;;;;;;8.75;5.03;;;23.40;38.40;;;;;;5056422;28;20367;-71
2023/10/03 08:21:28;;;;;;;7.97;5.15;;;23.40;38.70;;;;;;5056447;28;20017;-72
2023/10/03 08:23:58;;;;;;;9.02;5.35;;;23.50;38.50;;;;;;5058077;28;20069;-71
2023/10/03 08:26:25;;;;;;;12.10;5.18;;;23.70;38.80;;;;;;5056224;28;20032;-71
2023/10/03 08:29:10;;;;;;;11.40;5.15;;;23.70;38.00;;;;;;5056300;28;20536;-71
2023/10/03 08:31:38;;;;;;;9.80;5.00;;;23.70;38.10;;;;;;5056395;28;20060;-73
2023/10/03 08:34:10;;;;;;;10.25;5.15;;;23.70;37.80;;;;;;5056511;28;20275;-71
2023/10/03 08:36:37;;;;;;;11.85;5.68;;;23.70;37.70;;;;;;5056782;28;20017;-79
2023/10/03 08:39:12;;;;;;;8.65;4.50;;;23.70;38.00;;;;;;5056305;28;20084;-78
2023/10/03 08:41:53;;;;;;;8.55;4.88;;;23.80;37.80;;;;;;5056243;28;20017;-70
2023/10/03 08:44:23;;;;;;;9.73;5.18;;;23.90;37.90;;;;;;5056794;28;20094;-72
2023/10/03 08:46:55;;;;;;;12.57;5.43;;;23.80;37.40;;;;;;5056693;28;20037;-70
2023/10/03 08:49:38;;;;;;;10.65;5.57;;;23.80;37.70;;;;;;5056606;28;20106;-71
2023/10/03 08:52:09;;;;;;;8.20;5.05;;;23.90;37.80;;;;;;5071363;28;20056;-71
2023/10/03 08:54:39;;;;;;;11.95;5.63;;;23.90;38.20;;;;;;5055953;28;20025;-71
2023/10/03 08:57:05;;;;;;;9.68;6.07;;;24.00;38.10;;;;;;5056002;28;20071;-69
2023/10/03 08:59:31;;;;;;;7.70;5.15;;;24.10;38.40;;;;;;5055844;28;20033;-69
2023/10/03 09:02:05;;;;;;;11.27;5.38;;;24.20;37.90;;;;;;5056087;28;20025;-69
2023/10/03 09:04:38;;;;;;;7.10;4.95;;;24.30;37.60;;;;;;5056113;28;20116;-69
2023/10/03 09:07:08;;;;;;;8.90;5.55;;;24.30;37.60;;;;;;5055890;28;20037;-69
2023/10/03 09:09:42;;;;;;;9.68;5.88;;;24.30;37.10;;;;;;5055834;28;20094;-74
2023/10/03 09:12:09;;;;;;;11.10;6.20;;;24.30;37.40;;;;;;5054810;28;20025;-70
2023/10/03 09:14:38;;;;;;;8.13;5.25;;;24.30;37.50;;;;;;5054205;28;20074;-69
2023/10/03 09:17:06;;;;;;;8.85;5.82;;;24.40;38.30;;;;;;5055580;28;20025;-71
2023/10/03 09:19:46;;;;;;;10.48;5.90;;;24.60;37.50;;;;;;5055924;28;20060;-72
2023/10/03 09:22:15;;;;;;;10.32;5.43;;;24.60;37.50;;;;;;5055454;28;20044;-71
2023/10/03 09:24:44;;;;;;;9.52;5.55;;;24.60;36.90;;;;;;5055717;28;20381;-71
2023/10/03 09:27:17;;;;;;;10.02;5.32;;;24.70;37.20;;;;;;5055598;28;20017;-71
2023/10/03 09:29:43;;;;;;;8.52;5.07;;;24.80;38.10;;;;;;5055197;28;20025;-72
2023/10/03 09:32:20;;;;;;;11.15;5.45;;;24.90;37.00;;;;;;5055191;28;20109;-72
2023/10/03 09:34:56;;;;;;;8.20;5.63;;;25.10;36.00;;;;;;5055384;28;20358;-70
2023/10/03 09:37:28;;;;;;;8.65;5.35;;;25.20;36.60;;;;;;5053559;28;20466;-76
2023/10/03 09:39:58;;;;;;;10.35;6.20;;;25.40;35.80;;;;;;5054989;28;20072;-71
2023/10/03 09:42:24;;;;;;;10.85;6.80;;;25.40;36.20;;;;;;5055615;28;20021;-76
2023/10/03 09:44:51;;;;;;;8.93;6.07;;;25.70;35.20;;;;;;5059095;28;20043;-71
2023/10/03 09:47:27;;;;;;;9.80;5.95;;;25.70;34.70;;;;;;5057383;28;20052;-72
2023/10/03 09:49:58;;;;;;;10.23;5.65;;;25.50;35.80;;;;;;5055545;28;20036;-74
2023/10/03 09:52:26;;;;;;;9.15;6.10;;;25.70;35.10;;;;;;5053939;28;20053;-81
2023/10/03 09:54:59;;;;;;;13.23;6.13;;;25.70;35.60;;;;;;5054997;28;20029;-73
2023/10/03 09:57:28;;;;;;;11.30;5.55;;;25.80;35.40;;;;;;5055142;28;20381;-71
2023/10/03 09:59:55;;;;;;;11.82;5.72;;;25.90;35.50;;;;;;5054671;28;20465;-74
2023/10/03 10:02:31;;;;;;;12.75;6.55;;;26.00;35.60;;;;;;5055196;28;20019;-79
2023/10/03 10:05:06;;;;;;;7.60;5.40;;;26.10;35.60;;;;;;5055273;28;20025;-72
2023/10/03 10:08:06;;;;;;;;;;;26.20;35.80;;;;;;5059239;28;20047;-72
2023/10/03 10:10:35;;;;;;;10.10;6.15;;;26.40;35.90;;;;;;5037047;28;20341;-71
2023/10/03 10:13:14;;;;;;;10.00;6.18;;;26.60;35.30;;;;;;5057522;28;20029;-75
2023/10/03 10:16:01;;;;;;;11.05;6.28;;;26.60;36.00;;;;;;5056136;28;20371;-72
2023/10/03 10:18:45;;;;;;;10.43;6.18;;;26.70;35.80;;;;;;5055325;28;20032;-75
2023/10/03 10:21:31;;;;;;;11.40;6.55;;;26.70;35.70;;;;;;5056034;28;20436;-73
2023/10/03 10:24:20;;;;;;;10.75;6.22;;;26.60;37.00;;;;;;5054366;28;20032;-73
2023/10/03 10:26:53;;;;;;;10.23;6.13;;;26.70;36.40;;;;;;5054458;28;20031;-73
2023/10/03 10:29:21;;;;;;;10.13;6.43;;;26.80;35.80;;;;;;5054652;28;20492;-76
2023/10/03 10:31:57;;;;;;;8.82;5.90;;;26.70;36.30;;;;;;5052915;28;20033;-73
2023/10/03 10:34:40;;;;;;;11.00;6.40;;;27.00;35.90;;;;;;5054383;28;20032;-79
2023/10/03 10:37:10;;;;;;;8.10;5.85;;;27.10;36.10;;;;;;5054264;28;20112;-74
2023/10/03 10:39:56;;;;;;;8.77;5.60;;;26.80;36.50;;;;;;5054733;28;20033;-74
2023/10/03 10:42:26;;;;;;;8.60;5.07;;;27.00;37.30;;;;;;5053996;28;20158;-81
2023/10/03 10:45:09;;;;;;;8.60;5.90;;;27.30;36.70;;;;;;5053306;28;20021;-75
2023/10/03 10:47:43;;;;;;;10.77;6.00;;;27.40;36.10;;;;;;5054173;28;20044;-73
2023/10/03 10:50:09;;;;;;;10.32;6.05;;;27.60;35.50;;;;;;5052589;28;20557;-75
2023/10/03 10:52:53;;;;;;;7.93;5.75;;;27.40;36.30;;;;;;5053857;28;20481;-72
2023/10/03 10:55:23;;;;;;;10.93;5.97;;;27.10;36.80;;;;;;5055822;28;20020;-78
2023/10/03 10:58:15;;;;;;;10.65;5.72;;;26.90;37.00;;;;;;5058184;28;20028;-78
2023/10/03 11:00:41;;;;;;;9.50;6.20;;;26.80;37.10;;;;;;5057502;28;20060;-77
2023/10/03 11:03:07;;;;;;;13.27;6.05;;;26.90;37.70;;;;;;5056025;28;20461;-80
2023/10/03 11:05:49;;;;;;;10.65;5.80;;;27.30;37.60;;;;;;5054075;28;20017;-77
2023/10/03 11:08:15;;;;;;;7.82;5.28;;;27.70;36.50;;;;;;5054162;28;20041;-79
2023/10/03 11:10:54;;;;;;;10.30;5.47;;;27.30;36.60;;;;;;5056523;28;20036;-73
2023/10/03 11:13:21;;;;;;;8.00;5.32;;;27.50;37.00;;;;;;5054097;28;20043;-77
2023/10/03 11:15:54;;;;;;;9.80;4.78;;;27.40;36.80;;;;;;5054206;28;20027;-73
2023/10/03 11:18:32;;;;;;;8.98;5.35;;;27.40;36.60;;;;;;5042886;28;20163;-80
2023/10/03 11:20:59;;;;;;;7.60;5.30;;;27.20;37.30;;;;;;5057361;28;20035;-79
2023/10/03 11:23:25;;;;;;;8.90;5.75;;;27.20;37.90;;;;;;5059297;28;20025;-75
2023/10/03 11:25:58;;;;;;;9.63;4.90;;;27.10;37.20;;;;;;5054695;28;20381;-73
2023/10/03 11:28:32;;;;;;;11.38;5.43;;;27.20;37.50;;;;;;5057993;28;20428;-78
2023/10/03 11:31:02;;;;;;;9.60;5.22;;;27.50;36.60;;;;;;5053114;28;20068;-77
2023/10/03 11:33:28;;;;;;;9.93;5.38;;;27.20;37.50;;;;;;5053275;28;20370;-77
2023/10/03 11:35:54;;;;;;;8.43;4.85;;;27.00;37.90;;;;;;5053010;28;20029;-79
2023/10/03 11:38:19;;;;;;;9.23;5.50;;;26.50;38.50;;;;;;5053200;28;20029;-80
2023/10/03 11:40:47;;;;;;;9.75;5.38;;;26.20;39.30;;;;;;5053906;28;20029;-77
2023/10/03 11:43:20;;;;;;;11.27;5.35;;;26.10;40.30;;;;;;5053292;28;20017;-76
2023/10/03 11:45:55;;;;;;;10.43;5.32;;;26.00;40.50;;;;;;5053798;28;20036;-79
2023/10/03 11:48:22;;;;;;;14.30;5.90;;;25.80;41.00;;;;;;5052960;28;20041;-77
2023/10/03 11:50:48;;;;;;;9.00;5.57;;;25.80;42.20;;;;;;5053000;28;20416;-80
2023/10/03 11:53:15;;;;;;;9.77;5.70;;;25.60;42.80;;;;;;5060566;28;20104;-79
2023/10/03 11:55:42;;;;;;;10.52;6.03;;;25.50;44.40;;;;;;5053512;28;20505;-78
2023/10/03 11:58:12;;;;;;;9.50;6.07;;;25.40;43.60;;;;;;5053190;28;20025;-76
2023/10/03 12:00:42;;;;;;;12.65;5.75;;;25.50;43.70;;;;;;5052866;28;20477;-77
2023/10/03 12:03:09;;;;;;;11.32;6.10;;;25.50;43.30;;;;;;5053009;28;20028;-78
2023/10/03 12:05:36;;;;;;;12.10;5.85;;;25.00;43.90;;;;;;5053324;28;20039;-79
2023/10/03 12:08:05;;;;;;;10.88;5.93;;;24.80;44.70;;;;;;5053148;28;20363;-75
2023/10/03 12:10:31;;;;;;;13.82;5.50;;;25.00;44.10;;;;;;5053226;28;20029;-80
2023/10/03 12:12:57;;;;;;;11.82;5.68;;;25.10;44.30;;;;;;5055012;28;20035;-79
2023/10/03 12:15:24;;;;;;;13.10;5.78;;;25.50;42.50;;;;;;5054446;28;20033;-78
2023/10/03 12:17:50;;;;;;;11.70;5.72;;;25.60;42.10;;;;;;5057050;28;20021;-81
2023/10/03 12:20:18;;;;;;;12.77;5.38;;;25.80;41.80;;;;;;5058808;28;20037;-82
2023/10/03 12:22:45;;;;;;;10.30;5.70;;;25.80;41.50;;;;;;5053041;28;20021;-74
2023/10/03 12:25:12;;;;;;;9.07;5.68;;;25.60;42.30;;;;;;5052476;28;20082;-73
2023/10/03 12:27:39;;;;;;;14.65;5.68;;;25.80;42.40;;;;;;5052683;28;20024;-77
2023/10/03 12:30:10;;;;;;;9.88;5.47;;;25.90;41.30;;;;;;5052734;28;20152;-76
2023/10/03 12:32:38;;;;;;;9.43;5.45;;;25.80;41.90;;;;;;5068165;28;20021;-72
2023/10/03 12:35:04;;;;;;;8.90;4.72;;;25.80;40.30;;;;;;5052433;28;20047;-74
2023/10/03 12:37:31;;;;;;;18.27;6.07;;;25.90;40.30;;;;;;5052458;28;20049;-73
2023/10/03 12:40:02;;;;;;;12.52;5.53;;;26.00;41.40;;;;;;5052495;28;20432;-74
2023/10/03 12:42:28;;;;;;;12.57;5.68;;;26.00;40.20;;;;;;5052919;28;20053;-77
2023/10/03 12:44:56;;;;;;;13.77;5.72;;;25.90;41.00;;;;;;5052609;28;20039;-74
2023/10/03 12:47:22;;;;;;;18.25;5.18;;;25.60;41.70;;;;;;5053004;28;20041;-73